sensor_id;sensor_type;location;lat;lon;timestamp;P1;durP1;ratioP1;P2;durP2;ratioP2
59458;SDS011;45269;43.568;22.244;2023-05-07T00:01:45;9.43;;;8.32;;
59458;SDS011;45269;43.568;22.244;2023-05-07T00:04:10;8.27;;;7.45;;
59458;SDS011;45269;43.568;22.244;2023-05-07T00:06:35;10.35;;;9.10;;
59458;SDS011;45269;43.568;22.244;2023-05-07T00:09:01;10.25;;;9.25;;
59458;SDS011;45269;43.568;22.244;2023-05-07T00:11:27;7.90;;;7.10;;
59458;SDS011;45269;43.568;22.244;2023-05-07T00:13:52;8.38;;;6.78;;
59458;SDS011;45269;43.568;22.244;2023-05-07T00:16:18;7.32;;;6.65;;
59458;SDS011;45269;43.568;22.244;2023-05-07T00:18:43;7.97;;;7.28;;
59458;SDS011;45269;43.568;22.244;2023-05-07T00:21:08;9.63;;;7.03;;
59458;SDS011;45269;43.568;22.244;2023-05-07T00:23:34;8.90;;;6.97;;
59458;SDS011;45269;43.568;22.244;2023-05-07T00:25:59;8.05;;;7.28;;
59458;SDS011;45269;43.568;22.244;2023-05-07T00:28:25;7.22;;;6.57;;
59458;SDS011;45269;43.568;22.244;2023-05-07T00:30:50;7.53;;;6.60;;
59458;SDS011;45269;43.568;22.244;2023-05-07T00:33:15;8.77;;;7.80;;
59458;SDS011;45269;43.568;22.244;2023-05-07T00:35:41;8.15;;;7.32;;
59458;SDS011;45269;43.568;22.244;2023-05-07T00:38:07;8.88;;;8.02;;
59458;SDS011;45269;43.568;22.244;2023-05-07T00:40:32;11.07;;;8.20;;
59458;SDS011;45269;43.568;22.244;2023-05-07T00:42:57;12.25;;;10.10;;
59458;SDS011;45269;43.568;22.244;2023-05-07T00:45:28;11.13;;;9.82;;
59458;SDS011;45269;43.568;22.244;2023-05-07T00:47:57;9.37;;;8.43;;
59458;SDS011;45269;43.568;22.244;2023-05-07T00:50:22;9.13;;;8.25;;
59458;SDS011;45269;43.568;22.244;2023-05-07T00:52:48;8.95;;;8.07;;
59458;SDS011;45269;43.568;22.244;2023-05-07T00:55:14;9.50;;;8.60;;
59458;SDS011;45269;43.568;22.244;2023-05-07T00:57:40;21.58;;;15.25;;
59458;SDS011;45269;43.568;22.244;2023-05-07T01:00:06;18.75;;;12.70;;
59458;SDS011;45269;43.568;22.244;2023-05-07T01:02:33;13.07;;;10.38;;
59458;SDS011;45269;43.568;22.244;2023-05-07T01:04:59;9.80;;;7.80;;
59458;SDS011;45269;43.568;22.244;2023-05-07T01:07:25;9.48;;;8.48;;
59458;SDS011;45269;43.568;22.244;2023-05-07T01:09:50;9.48;;;8.27;;
59458;SDS011;45269;43.568;22.244;2023-05-07T01:12:16;13.50;;;9.13;;
59458;SDS011;45269;43.568;22.244;2023-05-07T01:14:42;13.13;;;9.88;;
59458;SDS011;45269;43.568;22.244;2023-05-07T01:17:07;11.73;;;8.60;;
59458;SDS011;45269;43.568;22.244;2023-05-07T01:19:33;10.57;;;9.45;;
59458;SDS011;45269;43.568;22.244;2023-05-07T01:22:07;12.38;;;10.07;;
59458;SDS011;45269;43.568;22.244;2023-05-07T01:24:33;14.25;;;10.52;;
59458;SDS011;45269;43.568;22.244;2023-05-07T01:26:58;10.70;;;9.38;;
59458;SDS011;45269;43.568;22.244;2023-05-07T01:29:24;9.13;;;8.18;;
59458;SDS011;45269;43.568;22.244;2023-05-07T01:31:49;7.93;;;7.13;;
59458;SDS011;45269;43.568;22.244;2023-05-07T01:34:15;11.52;;;9.75;;
59458;SDS011;45269;43.568;22.244;2023-05-07T01:36:42;12.27;;;10.00;;
59458;SDS011;45269;43.568;22.244;2023-05-07T01:39:08;12.32;;;9.10;;
59458;SDS011;45269;43.568;22.244;2023-05-07T01:41:33;11.02;;;8.27;;
59458;SDS011;45269;43.568;22.244;2023-05-07T01:43:59;9.50;;;7.88;;
59458;SDS011;45269;43.568;22.244;2023-05-07T01:46:26;8.77;;;7.88;;
59458;SDS011;45269;43.568;22.244;2023-05-07T01:48:51;8.82;;;7.97;;
59458;SDS011;45269;43.568;22.244;2023-05-07T01:51:16;11.98;;;9.93;;
59458;SDS011;45269;43.568;22.244;2023-05-07T01:53:42;11.63;;;9.50;;
59458;SDS011;45269;43.568;22.244;2023-05-07T01:56:08;8.43;;;7.55;;
59458;SDS011;45269;43.568;22.244;2023-05-07T01:58:34;8.88;;;7.28;;
59458;SDS011;45269;43.568;22.244;2023-05-07T02:00:59;7.68;;;6.97;;
59458;SDS011;45269;43.568;22.244;2023-05-07T02:03:25;9.55;;;8.55;;
59458;SDS011;45269;43.568;22.244;2023-05-07T02:05:50;7.95;;;7.15;;
59458;SDS011;45269;43.568;22.244;2023-05-07T02:08:16;8.63;;;7.72;;
59458;SDS011;45269;43.568;22.244;2023-05-07T02:10:41;8.07;;;7.22;;
59458;SDS011;45269;43.568;22.244;2023-05-07T02:13:06;9.65;;;7.93;;
59458;SDS011;45269;43.568;22.244;2023-05-07T02:15:32;8.13;;;6.85;;
59458;SDS011;45269;43.568;22.244;2023-05-07T02:18:01;8.10;;;7.30;;
59458;SDS011;45269;43.568;22.244;2023-05-07T02:20:26;8.18;;;7.25;;
59458;SDS011;45269;43.568;22.244;2023-05-07T02:22:52;7.68;;;6.97;;
59458;SDS011;45269;43.568;22.244;2023-05-07T02:25:17;7.70;;;6.90;;
59458;SDS011;45269;43.568;22.244;2023-05-07T02:27:43;6.95;;;6.35;;
59458;SDS011;45269;43.568;22.244;2023-05-07T02:30:08;7.45;;;6.65;;
59458;SDS011;45269;43.568;22.244;2023-05-07T02:32:33;10.52;;;7.45;;
59458;SDS011;45269;43.568;22.244;2023-05-07T02:34:59;8.07;;;7.22;;
59458;SDS011;45269;43.568;22.244;2023-05-07T02:37:24;7.50;;;6.78;;
59458;SDS011;45269;43.568;22.244;2023-05-07T02:39:50;7.30;;;6.60;;
59458;SDS011;45269;43.568;22.244;2023-05-07T02:42:16;7.65;;;6.90;;
59458;SDS011;45269;43.568;22.244;2023-05-07T02:44:41;7.45;;;6.65;;
59458;SDS011;45269;43.568;22.244;2023-05-07T02:47:07;6.40;;;5.80;;
59458;SDS011;45269;43.568;22.244;2023-05-07T02:49:33;7.28;;;6.57;;
59458;SDS011;45269;43.568;22.244;2023-05-07T02:51:59;6.35;;;5.70;;
59458;SDS011;45269;43.568;22.244;2023-05-07T02:54:24;6.35;;;5.82;;
59458;SDS011;45269;43.568;22.244;2023-05-07T02:56:49;6.60;;;6.00;;
59458;SDS011;45269;43.568;22.244;2023-05-07T02:59:15;7.25;;;6.47;;
59458;SDS011;45269;43.568;22.244;2023-05-07T03:01:40;6.47;;;5.82;;
59458;SDS011;45269;43.568;22.244;2023-05-07T03:04:06;8.13;;;6.35;;
59458;SDS011;45269;43.568;22.244;2023-05-07T03:06:32;6.78;;;5.85;;
59458;SDS011;45269;43.568;22.244;2023-05-07T03:08:57;6.70;;;6.10;;
59458;SDS011;45269;43.568;22.244;2023-05-07T03:11:22;7.63;;;6.90;;
59458;SDS011;45269;43.568;22.244;2023-05-07T03:13:48;10.05;;;6.10;;
59458;SDS011;45269;43.568;22.244;2023-05-07T03:16:15;7.20;;;6.50;;
59458;SDS011;45269;43.568;22.244;2023-05-07T03:18:40;7.80;;;7.05;;
59458;SDS011;45269;43.568;22.244;2023-05-07T03:21:06;9.55;;;7.60;;
59458;SDS011;45269;43.568;22.244;2023-05-07T03:23:31;7.30;;;6.60;;
59458;SDS011;45269;43.568;22.244;2023-05-07T03:25:56;7.43;;;6.28;;
59458;SDS011;45269;43.568;22.244;2023-05-07T03:28:22;5.93;;;5.43;;
59458;SDS011;45269;43.568;22.244;2023-05-07T03:30:47;9.30;;;5.55;;
59458;SDS011;45269;43.568;22.244;2023-05-07T03:33:12;7.15;;;6.45;;
59458;SDS011;45269;43.568;22.244;2023-05-07T03:35:38;6.72;;;5.80;;
59458;SDS011;45269;43.568;22.244;2023-05-07T03:38:03;7.60;;;5.95;;
59458;SDS011;45269;43.568;22.244;2023-05-07T03:40:29;10.02;;;6.22;;
59458;SDS011;45269;43.568;22.244;2023-05-07T03:42:54;10.82;;;7.00;;
59458;SDS011;45269;43.568;22.244;2023-05-07T03:45:19;9.05;;;7.57;;
59458;SDS011;45269;43.568;22.244;2023-05-07T03:47:45;7.35;;;6.60;;
59458;SDS011;45269;43.568;22.244;2023-05-07T03:50:10;7.45;;;6.75;;
59458;SDS011;45269;43.568;22.244;2023-05-07T03:52:36;8.05;;;7.25;;
59458;SDS011;45269;43.568;22.244;2023-05-07T03:55:01;7.47;;;6.78;;
59458;SDS011;45269;43.568;22.244;2023-05-07T03:57:26;9.30;;;7.30;;
59458;SDS011;45269;43.568;22.244;2023-05-07T03:59:52;13.70;;;8.07;;
59458;SDS011;45269;43.568;22.244;2023-05-07T04:02:17;14.23;;;9.73;;
59458;SDS011;45269;43.568;22.244;2023-05-07T04:04:42;12.30;;;10.40;;
59458;SDS011;45269;43.568;22.244;2023-05-07T04:07:08;9.75;;;8.80;;
59458;SDS011;45269;43.568;22.244;2023-05-07T04:09:33;10.25;;;8.90;;
59458;SDS011;45269;43.568;22.244;2023-05-07T04:11:58;10.18;;;8.80;;
59458;SDS011;45269;43.568;22.244;2023-05-07T04:14:24;10.20;;;7.70;;
59458;SDS011;45269;43.568;22.244;2023-05-07T04:16:49;7.30;;;6.60;;
59458;SDS011;45269;43.568;22.244;2023-05-07T04:19:15;7.93;;;7.13;;
59458;SDS011;45269;43.568;22.244;2023-05-07T04:21:40;7.43;;;6.70;;
59458;SDS011;45269;43.568;22.244;2023-05-07T04:24:05;8.02;;;7.32;;
59458;SDS011;45269;43.568;22.244;2023-05-07T04:26:31;8.90;;;6.95;;
59458;SDS011;45269;43.568;22.244;2023-05-07T04:28:56;8.70;;;7.78;;
59458;SDS011;45269;43.568;22.244;2023-05-07T04:31:24;8.88;;;7.00;;
59458;SDS011;45269;43.568;22.244;2023-05-07T04:33:50;8.57;;;7.70;;
59458;SDS011;45269;43.568;22.244;2023-05-07T04:36:16;7.93;;;7.03;;
59458;SDS011;45269;43.568;22.244;2023-05-07T04:38:41;7.88;;;7.10;;
59458;SDS011;45269;43.568;22.244;2023-05-07T04:41:08;8.02;;;7.30;;
59458;SDS011;45269;43.568;22.244;2023-05-07T04:43:33;8.90;;;8.00;;
59458;SDS011;45269;43.568;22.244;2023-05-07T04:45:59;11.98;;;9.38;;
59458;SDS011;45269;43.568;22.244;2023-05-07T04:48:24;10.65;;;8.75;;
59458;SDS011;45269;43.568;22.244;2023-05-07T04:50:51;11.65;;;8.20;;
59458;SDS011;45269;43.568;22.244;2023-05-07T04:53:17;11.95;;;8.90;;
59458;SDS011;45269;43.568;22.244;2023-05-07T04:55:42;9.52;;;8.50;;
59458;SDS011;45269;43.568;22.244;2023-05-07T04:58:08;11.43;;;8.70;;
59458;SDS011;45269;43.568;22.244;2023-05-07T05:00:33;9.18;;;8.27;;
59458;SDS011;45269;43.568;22.244;2023-05-07T05:02:59;9.35;;;8.00;;
59458;SDS011;45269;43.568;22.244;2023-05-07T05:05:24;12.48;;;10.63;;
59458;SDS011;45269;43.568;22.244;2023-05-07T05:07:49;9.93;;;8.93;;
59458;SDS011;45269;43.568;22.244;2023-05-07T05:10:16;10.82;;;8.05;;
59458;SDS011;45269;43.568;22.244;2023-05-07T05:12:42;9.93;;;8.10;;
59458;SDS011;45269;43.568;22.244;2023-05-07T05:15:07;9.90;;;8.90;;
59458;SDS011;45269;43.568;22.244;2023-05-07T05:17:33;9.63;;;8.73;;
59458;SDS011;45269;43.568;22.244;2023-05-07T05:19:59;10.40;;;8.40;;
59458;SDS011;45269;43.568;22.244;2023-05-07T05:22:25;10.05;;;9.05;;
59458;SDS011;45269;43.568;22.244;2023-05-07T05:24:50;10.90;;;8.00;;
59458;SDS011;45269;43.568;22.244;2023-05-07T05:27:16;8.35;;;7.35;;
59458;SDS011;45269;43.568;22.244;2023-05-07T05:29:41;7.68;;;6.88;;
59458;SDS011;45269;43.568;22.244;2023-05-07T05:32:07;8.48;;;7.47;;
59458;SDS011;45269;43.568;22.244;2023-05-07T05:34:32;7.90;;;6.93;;
59458;SDS011;45269;43.568;22.244;2023-05-07T05:36:58;10.15;;;7.43;;
59458;SDS011;45269;43.568;22.244;2023-05-07T05:39:24;8.85;;;7.95;;
59458;SDS011;45269;43.568;22.244;2023-05-07T05:41:49;18.60;;;13.85;;
59458;SDS011;45269;43.568;22.244;2023-05-07T05:44:14;13.10;;;11.70;;
59458;SDS011;45269;43.568;22.244;2023-05-07T05:46:40;13.13;;;10.50;;
59458;SDS011;45269;43.568;22.244;2023-05-07T05:49:05;10.23;;;8.68;;
59458;SDS011;45269;43.568;22.244;2023-05-07T05:51:31;10.45;;;7.57;;
59458;SDS011;45269;43.568;22.244;2023-05-07T05:53:56;11.40;;;9.13;;
59458;SDS011;45269;43.568;22.244;2023-05-07T05:56:21;12.77;;;9.48;;
59458;SDS011;45269;43.568;22.244;2023-05-07T05:58:47;10.52;;;9.43;;
59458;SDS011;45269;43.568;22.244;2023-05-07T06:01:12;11.13;;;9.50;;
59458;SDS011;45269;43.568;22.244;2023-05-07T06:03:37;10.32;;;8.98;;
59458;SDS011;45269;43.568;22.244;2023-05-07T06:06:03;12.13;;;10.93;;
59458;SDS011;45269;43.568;22.244;2023-05-07T06:08:31;14.13;;;11.68;;
59458;SDS011;45269;43.568;22.244;2023-05-07T06:10:56;13.43;;;11.68;;
59458;SDS011;45269;43.568;22.244;2023-05-07T06:13:22;12.88;;;10.93;;
59458;SDS011;45269;43.568;22.244;2023-05-07T06:15:48;16.63;;;11.45;;
59458;SDS011;45269;43.568;22.244;2023-05-07T06:18:14;12.07;;;10.75;;
59458;SDS011;45269;43.568;22.244;2023-05-07T06:20:39;12.15;;;10.82;;
59458;SDS011;45269;43.568;22.244;2023-05-07T06:23:04;12.48;;;10.02;;
59458;SDS011;45269;43.568;22.244;2023-05-07T06:25:30;10.20;;;9.20;;
59458;SDS011;45269;43.568;22.244;2023-05-07T06:27:55;9.52;;;8.52;;
59458;SDS011;45269;43.568;22.244;2023-05-07T06:30:20;8.30;;;7.50;;
59458;SDS011;45269;43.568;22.244;2023-05-07T06:32:46;8.18;;;7.47;;
59458;SDS011;45269;43.568;22.244;2023-05-07T06:35:11;9.52;;;8.35;;
59458;SDS011;45269;43.568;22.244;2023-05-07T06:37:36;8.32;;;7.38;;
59458;SDS011;45269;43.568;22.244;2023-05-07T06:40:04;8.57;;;7.78;;
59458;SDS011;45269;43.568;22.244;2023-05-07T06:42:29;9.20;;;7.97;;
59458;SDS011;45269;43.568;22.244;2023-05-07T06:44:55;8.82;;;8.02;;
59458;SDS011;45269;43.568;22.244;2023-05-07T06:47:20;10.18;;;7.68;;
59458;SDS011;45269;43.568;22.244;2023-05-07T06:49:45;8.35;;;7.55;;
59458;SDS011;45269;43.568;22.244;2023-05-07T06:52:11;9.27;;;7.70;;
59458;SDS011;45269;43.568;22.244;2023-05-07T06:54:36;8.73;;;7.35;;
59458;SDS011;45269;43.568;22.244;2023-05-07T06:57:01;8.57;;;7.70;;
59458;SDS011;45269;43.568;22.244;2023-05-07T06:59:27;9.77;;;7.57;;
59458;SDS011;45269;43.568;22.244;2023-05-07T07:01:52;8.43;;;7.60;;
59458;SDS011;45269;43.568;22.244;2023-05-07T07:04:17;8.60;;;7.45;;
59458;SDS011;45269;43.568;22.244;2023-05-07T07:06:43;8.40;;;7.60;;
59458;SDS011;45269;43.568;22.244;2023-05-07T07:09:08;7.93;;;7.05;;
59458;SDS011;45269;43.568;22.244;2023-05-07T07:11:33;9.48;;;7.32;;
59458;SDS011;45269;43.568;22.244;2023-05-07T07:13:59;8.50;;;7.50;;
59458;SDS011;45269;43.568;22.244;2023-05-07T07:16:24;7.95;;;7.15;;
59458;SDS011;45269;43.568;22.244;2023-05-07T07:18:50;9.00;;;7.97;;
59458;SDS011;45269;43.568;22.244;2023-05-07T07:21:15;7.47;;;6.65;;
59458;SDS011;45269;43.568;22.244;2023-05-07T07:23:41;9.10;;;6.85;;
59458;SDS011;45269;43.568;22.244;2023-05-07T07:26:06;8.57;;;7.68;;
59458;SDS011;45269;43.568;22.244;2023-05-07T07:28:31;8.40;;;6.82;;
59458;SDS011;45269;43.568;22.244;2023-05-07T07:30:57;9.75;;;6.88;;
59458;SDS011;45269;43.568;22.244;2023-05-07T07:33:22;8.02;;;7.30;;
59458;SDS011;45269;43.568;22.244;2023-05-07T07:35:48;9.15;;;6.53;;
59458;SDS011;45269;43.568;22.244;2023-05-07T07:38:13;9.02;;;6.35;;
59458;SDS011;45269;43.568;22.244;2023-05-07T07:40:38;7.20;;;6.53;;
59458;SDS011;45269;43.568;22.244;2023-05-07T07:43:04;8.13;;;6.28;;
59458;SDS011;45269;43.568;22.244;2023-05-07T07:45:30;7.63;;;6.10;;
59458;SDS011;45269;43.568;22.244;2023-05-07T07:47:55;10.30;;;7.00;;
59458;SDS011;45269;43.568;22.244;2023-05-07T07:50:20;7.70;;;6.25;;
59458;SDS011;45269;43.568;22.244;2023-05-07T07:52:46;6.32;;;5.72;;
59458;SDS011;45269;43.568;22.244;2023-05-07T07:55:11;6.65;;;6.05;;
59458;SDS011;45269;43.568;22.244;2023-05-07T07:57:37;7.20;;;5.82;;
59458;SDS011;45269;43.568;22.244;2023-05-07T08:00:03;8.15;;;6.05;;
59458;SDS011;45269;43.568;22.244;2023-05-07T08:02:28;11.95;;;5.63;;
59458;SDS011;45269;43.568;22.244;2023-05-07T08:04:54;7.85;;;5.20;;
59458;SDS011;45269;43.568;22.244;2023-05-07T08:07:19;6.05;;;5.20;;
59458;SDS011;45269;43.568;22.244;2023-05-07T08:09:45;14.07;;;5.93;;
59458;SDS011;45269;43.568;22.244;2023-05-07T08:12:11;9.07;;;5.53;;
59458;SDS011;45269;43.568;22.244;2023-05-07T08:14:36;7.03;;;5.00;;
59458;SDS011;45269;43.568;22.244;2023-05-07T08:17:02;6.43;;;5.00;;
59458;SDS011;45269;43.568;22.244;2023-05-07T08:19:27;8.68;;;5.32;;
59458;SDS011;45269;43.568;22.244;2023-05-07T08:21:52;5.15;;;4.68;;
59458;SDS011;45269;43.568;22.244;2023-05-07T08:24:18;5.47;;;4.90;;
59458;SDS011;45269;43.568;22.244;2023-05-07T08:26:43;6.38;;;5.75;;
59458;SDS011;45269;43.568;22.244;2023-05-07T08:29:09;7.20;;;4.95;;
59458;SDS011;45269;43.568;22.244;2023-05-07T08:31:34;5.63;;;5.10;;
59458;SDS011;45269;43.568;22.244;2023-05-07T08:34:00;6.93;;;5.10;;
59458;SDS011;45269;43.568;22.244;2023-05-07T08:36:25;6.32;;;5.45;;
59458;SDS011;45269;43.568;22.244;2023-05-07T08:38:51;6.60;;;4.90;;
59458;SDS011;45269;43.568;22.244;2023-05-07T08:41:16;4.20;;;3.70;;
59458;SDS011;45269;43.568;22.244;2023-05-07T08:43:41;6.50;;;4.80;;
59458;SDS011;45269;43.568;22.244;2023-05-07T08:46:10;10.82;;;4.53;;
59458;SDS011;45269;43.568;22.244;2023-05-07T08:48:36;4.85;;;4.45;;
59458;SDS011;45269;43.568;22.244;2023-05-07T08:51:01;5.20;;;3.80;;
59458;SDS011;45269;43.568;22.244;2023-05-07T08:53:27;5.55;;;4.13;;
59458;SDS011;45269;43.568;22.244;2023-05-07T08:55:52;5.55;;;4.93;;
59458;SDS011;45269;43.568;22.244;2023-05-07T08:58:18;4.82;;;4.25;;
59458;SDS011;45269;43.568;22.244;2023-05-07T09:00:43;5.25;;;4.20;;
59458;SDS011;45269;43.568;22.244;2023-05-07T09:03:09;4.72;;;3.78;;
59458;SDS011;45269;43.568;22.244;2023-05-07T09:05:37;6.63;;;4.40;;
59458;SDS011;45269;43.568;22.244;2023-05-07T09:08:04;5.47;;;4.13;;
59458;SDS011;45269;43.568;22.244;2023-05-07T09:10:31;4.75;;;3.95;;
59458;SDS011;45269;43.568;22.244;2023-05-07T09:12:57;8.38;;;3.70;;
59458;SDS011;45269;43.568;22.244;2023-05-07T09:15:22;10.75;;;4.22;;
59458;SDS011;45269;43.568;22.244;2023-05-07T09:17:48;11.98;;;5.63;;
59458;SDS011;45269;43.568;22.244;2023-05-07T09:20:13;5.38;;;4.20;;
59458;SDS011;45269;43.568;22.244;2023-05-07T09:22:38;8.35;;;4.72;;
59458;SDS011;45269;43.568;22.244;2023-05-07T09:25:05;5.72;;;3.67;;
59458;SDS011;45269;43.568;22.244;2023-05-07T09:27:31;4.82;;;3.97;;
59458;SDS011;45269;43.568;22.244;2023-05-07T09:29:56;5.05;;;3.28;;
59458;SDS011;45269;43.568;22.244;2023-05-07T09:32:21;4.30;;;3.33;;
59458;SDS011;45269;43.568;22.244;2023-05-07T09:34:47;4.43;;;3.70;;
59458;SDS011;45269;43.568;22.244;2023-05-07T09:37:12;5.70;;;3.78;;
59458;SDS011;45269;43.568;22.244;2023-05-07T09:39:39;4.20;;;3.40;;
59458;SDS011;45269;43.568;22.244;2023-05-07T09:42:05;4.10;;;3.70;;
59458;SDS011;45269;43.568;22.244;2023-05-07T09:44:31;3.97;;;3.55;;
59458;SDS011;45269;43.568;22.244;2023-05-07T09:46:56;6.53;;;3.42;;
59458;SDS011;45269;43.568;22.244;2023-05-07T09:49:24;7.10;;;3.50;;
59458;SDS011;45269;43.568;22.244;2023-05-07T09:51:52;6.88;;;4.07;;
59458;SDS011;45269;43.568;22.244;2023-05-07T09:54:18;4.93;;;3.38;;
59458;SDS011;45269;43.568;22.244;2023-05-07T09:56:48;5.10;;;3.63;;
59458;SDS011;45269;43.568;22.244;2023-05-07T09:59:14;7.85;;;3.50;;
59458;SDS011;45269;43.568;22.244;2023-05-07T10:01:41;3.88;;;3.05;;
59458;SDS011;45269;43.568;22.244;2023-05-07T10:04:07;5.55;;;2.97;;
59458;SDS011;45269;43.568;22.244;2023-05-07T10:06:35;3.23;;;2.97;;
59458;SDS011;45269;43.568;22.244;2023-05-07T10:09:01;3.72;;;3.30;;
59458;SDS011;45269;43.568;22.244;2023-05-07T10:11:27;3.90;;;3.08;;
59458;SDS011;45269;43.568;22.244;2023-05-07T10:13:52;4.55;;;2.88;;
59458;SDS011;45269;43.568;22.244;2023-05-07T10:16:18;7.85;;;3.70;;
59458;SDS011;45269;43.568;22.244;2023-05-07T10:18:44;4.13;;;2.80;;
59458;SDS011;45269;43.568;22.244;2023-05-07T10:21:16;4.82;;;3.00;;
59458;SDS011;45269;43.568;22.244;2023-05-07T10:23:41;5.57;;;2.80;;
59458;SDS011;45269;43.568;22.244;2023-05-07T10:26:09;4.05;;;3.50;;
59458;SDS011;45269;43.568;22.244;2023-05-07T10:28:38;3.53;;;3.10;;
59458;SDS011;45269;43.568;22.244;2023-05-07T10:31:08;5.20;;;3.47;;
59458;SDS011;45269;43.568;22.244;2023-05-07T10:33:37;5.45;;;3.05;;
59458;SDS011;45269;43.568;22.244;2023-05-07T10:36:03;8.25;;;3.25;;
59458;SDS011;45269;43.568;22.244;2023-05-07T10:38:29;5.07;;;3.08;;
59458;SDS011;45269;43.568;22.244;2023-05-07T10:40:54;3.67;;;3.00;;
59458;SDS011;45269;43.568;22.244;2023-05-07T10:43:20;3.95;;;3.03;;
59458;SDS011;45269;43.568;22.244;2023-05-07T10:48:30;4.57;;;3.13;;
59458;SDS011;45269;43.568;22.244;2023-05-07T10:53:40;5.80;;;3.03;;
59458;SDS011;45269;43.568;22.244;2023-05-07T10:56:24;3.15;;;2.63;;
59458;SDS011;45269;43.568;22.244;2023-05-07T10:58:50;6.97;;;2.97;;
59458;SDS011;45269;43.568;22.244;2023-05-07T11:01:15;4.35;;;2.72;;
59458;SDS011;45269;43.568;22.244;2023-05-07T11:04:13;3.20;;;2.90;;
59458;SDS011;45269;43.568;22.244;2023-05-07T11:09:04;2.80;;;2.60;;
59458;SDS011;45269;43.568;22.244;2023-05-07T11:12:03;6.10;;;3.00;;
59458;SDS011;45269;43.568;22.244;2023-05-07T11:17:06;3.80;;;2.50;;
59458;SDS011;45269;43.568;22.244;2023-05-07T11:24:59;3.33;;;2.55;;
59458;SDS011;45269;43.568;22.244;2023-05-07T11:27:25;2.45;;;2.25;;
59458;SDS011;45269;43.568;22.244;2023-05-07T11:29:50;4.15;;;2.70;;
59458;SDS011;45269;43.568;22.244;2023-05-07T11:32:21;4.22;;;2.50;;
59458;SDS011;45269;43.568;22.244;2023-05-07T11:34:47;2.85;;;2.65;;
59458;SDS011;45269;43.568;22.244;2023-05-07T11:37:16;4.60;;;2.80;;
59458;SDS011;45269;43.568;22.244;2023-05-07T11:39:41;7.07;;;3.85;;
59458;SDS011;45269;43.568;22.244;2023-05-07T11:42:07;6.68;;;6.05;;
59458;SDS011;45269;43.568;22.244;2023-05-07T11:44:43;5.70;;;3.00;;
59458;SDS011;45269;43.568;22.244;2023-05-07T11:47:09;10.80;;;3.28;;
59458;SDS011;45269;43.568;22.244;2023-05-07T11:49:35;6.85;;;3.85;;
59458;SDS011;45269;43.568;22.244;2023-05-07T11:52:00;4.45;;;2.80;;
59458;SDS011;45269;43.568;22.244;2023-05-07T11:54:26;2.75;;;2.50;;
59458;SDS011;45269;43.568;22.244;2023-05-07T11:56:51;4.53;;;2.60;;
59458;SDS011;45269;43.568;22.244;2023-05-07T11:59:17;4.18;;;2.60;;
59458;SDS011;45269;43.568;22.244;2023-05-07T12:01:44;2.92;;;2.50;;
59458;SDS011;45269;43.568;22.244;2023-05-07T12:04:10;7.37;;;2.53;;
59458;SDS011;45269;43.568;22.244;2023-05-07T12:06:36;2.85;;;2.58;;
59458;SDS011;45269;43.568;22.244;2023-05-07T12:09:01;5.47;;;2.53;;
59458;SDS011;45269;43.568;22.244;2023-05-07T12:11:26;3.35;;;3.05;;
59458;SDS011;45269;43.568;22.244;2023-05-07T12:13:53;6.82;;;2.70;;
59458;SDS011;45269;43.568;22.244;2023-05-07T12:16:19;7.07;;;2.20;;
59458;SDS011;45269;43.568;22.244;2023-05-07T12:18:44;2.47;;;2.30;;
59458;SDS011;45269;43.568;22.244;2023-05-07T12:21:10;3.00;;;2.70;;
59458;SDS011;45269;43.568;22.244;2023-05-07T12:23:36;2.72;;;2.50;;
59458;SDS011;45269;43.568;22.244;2023-05-07T12:26:01;3.30;;;2.30;;
59458;SDS011;45269;43.568;22.244;2023-05-07T12:28:27;3.30;;;2.20;;
59458;SDS011;45269;43.568;22.244;2023-05-07T12:30:52;5.75;;;2.60;;
59458;SDS011;45269;43.568;22.244;2023-05-07T12:33:19;3.47;;;2.33;;
59458;SDS011;45269;43.568;22.244;2023-05-07T12:35:48;4.35;;;3.00;;
59458;SDS011;45269;43.568;22.244;2023-05-07T12:38:14;4.72;;;2.58;;
59458;SDS011;45269;43.568;22.244;2023-05-07T12:40:41;2.67;;;2.42;;
59458;SDS011;45269;43.568;22.244;2023-05-07T12:43:07;3.28;;;2.97;;
59458;SDS011;45269;43.568;22.244;2023-05-07T12:45:38;2.60;;;2.40;;
59458;SDS011;45269;43.568;22.244;2023-05-07T12:48:04;3.67;;;2.90;;
59458;SDS011;45269;43.568;22.244;2023-05-07T12:50:32;3.33;;;2.80;;
59458;SDS011;45269;43.568;22.244;2023-05-07T12:52:58;3.53;;;2.72;;
59458;SDS011;45269;43.568;22.244;2023-05-07T12:55:24;4.18;;;3.00;;
59458;SDS011;45269;43.568;22.244;2023-05-07T12:57:49;3.88;;;3.50;;
59458;SDS011;45269;43.568;22.244;2023-05-07T13:00:17;3.03;;;2.72;;
59458;SDS011;45269;43.568;22.244;2023-05-07T13:02:43;3.47;;;2.95;;
59458;SDS011;45269;43.568;22.244;2023-05-07T13:05:12;3.53;;;2.80;;
59458;SDS011;45269;43.568;22.244;2023-05-07T13:07:37;3.65;;;2.72;;
59458;SDS011;45269;43.568;22.244;2023-05-07T13:10:03;9.10;;;3.10;;
59458;SDS011;45269;43.568;22.244;2023-05-07T13:12:28;3.05;;;2.80;;
59458;SDS011;45269;43.568;22.244;2023-05-07T13:14:54;3.63;;;3.10;;
59458;SDS011;45269;43.568;22.244;2023-05-07T13:17:20;4.13;;;2.50;;
59458;SDS011;45269;43.568;22.244;2023-05-07T13:19:45;3.28;;;2.97;;
59458;SDS011;45269;43.568;22.244;2023-05-07T13:22:10;3.03;;;2.53;;
59458;SDS011;45269;43.568;22.244;2023-05-07T13:24:36;3.72;;;2.70;;
59458;SDS011;45269;43.568;22.244;2023-05-07T13:27:01;3.83;;;2.50;;
59458;SDS011;45269;43.568;22.244;2023-05-07T13:29:26;3.15;;;2.85;;
59458;SDS011;45269;43.568;22.244;2023-05-07T13:31:58;2.78;;;2.58;;
59458;SDS011;45269;43.568;22.244;2023-05-07T13:34:23;4.47;;;2.58;;
59458;SDS011;45269;43.568;22.244;2023-05-07T13:36:48;3.75;;;2.70;;
59458;SDS011;45269;43.568;22.244;2023-05-07T13:39:14;3.45;;;2.45;;
59458;SDS011;45269;43.568;22.244;2023-05-07T13:41:39;2.67;;;2.47;;
59458;SDS011;45269;43.568;22.244;2023-05-07T13:44:04;3.83;;;2.40;;
59458;SDS011;45269;43.568;22.244;2023-05-07T13:46:30;3.65;;;2.30;;
59458;SDS011;45269;43.568;22.244;2023-05-07T13:48:55;2.80;;;2.13;;
59458;SDS011;45269;43.568;22.244;2023-05-07T13:51:21;2.85;;;2.58;;
59458;SDS011;45269;43.568;22.244;2023-05-07T13:53:47;2.42;;;2.22;;
59458;SDS011;45269;43.568;22.244;2023-05-07T13:56:12;3.05;;;2.58;;
59458;SDS011;45269;43.568;22.244;2023-05-07T13:58:38;4.03;;;2.70;;
59458;SDS011;45269;43.568;22.244;2023-05-07T14:01:03;4.18;;;2.45;;
59458;SDS011;45269;43.568;22.244;2023-05-07T14:03:28;3.22;;;2.47;;
59458;SDS011;45269;43.568;22.244;2023-05-07T14:05:56;3.23;;;2.57;;
59458;SDS011;45269;43.568;22.244;2023-05-07T14:08:23;4.28;;;2.50;;
59458;SDS011;45269;43.568;22.244;2023-05-07T14:10:48;2.63;;;2.42;;
59458;SDS011;45269;43.568;22.244;2023-05-07T14:13:13;3.65;;;2.60;;
59458;SDS011;45269;43.568;22.244;2023-05-07T14:15:39;2.65;;;2.45;;
59458;SDS011;45269;43.568;22.244;2023-05-07T14:18:05;3.90;;;2.15;;
59458;SDS011;45269;43.568;22.244;2023-05-07T14:20:30;3.03;;;2.35;;
59458;SDS011;45269;43.568;22.244;2023-05-07T14:22:56;3.03;;;2.30;;
59458;SDS011;45269;43.568;22.244;2023-05-07T14:25:21;5.05;;;2.50;;
59458;SDS011;45269;43.568;22.244;2023-05-07T14:27:46;4.10;;;2.83;;
59458;SDS011;45269;43.568;22.244;2023-05-07T14:30:12;4.43;;;3.78;;
59458;SDS011;45269;43.568;22.244;2023-05-07T14:32:37;6.13;;;3.83;;
59458;SDS011;45269;43.568;22.244;2023-05-07T14:35:02;3.67;;;2.97;;
59458;SDS011;45269;43.568;22.244;2023-05-07T14:37:28;3.25;;;2.60;;
59458;SDS011;45269;43.568;22.244;2023-05-07T14:39:53;3.47;;;2.50;;